createdAt,value
2017-12-27T00:00:11.502Z,99.99
2017-12-27T00:01:11.223Z,99.99
2017-12-27T00:02:11.464Z,99.99
2017-12-27T00:03:11.454Z,99.99
2017-12-27T00:04:11.449Z,99.99
2017-12-27T00:05:11.427Z,99.99
2017-12-27T00:06:11.406Z,99.99
2017-12-27T00:07:11.396Z,99.99
2017-12-27T00:08:11.377Z,99.99
2017-12-27T00:09:11.373Z,99.99
2017-12-27T00:10:11.358Z,99.99
2017-12-27T00:11:11.334Z,99.99
2017-12-27T00:12:11.334Z,99.99
2017-12-27T00:13:11.051Z,99.99
2017-12-27T00:14:11.044Z,99.99
2017-12-27T00:15:11.286Z,99.99
2017-12-27T00:16:11.269Z,99.99
2017-12-27T00:17:11.247Z,99.99
2017-12-27T00:18:11.249Z,99.99
2017-12-27T00:19:11.218Z,99.99
2017-12-27T00:20:11.210Z,99.99
2017-12-27T00:21:11.241Z,99.99
2017-12-27T00:22:11.178Z,99.99
2017-12-27T00:23:10.908Z,99.99
2017-12-27T00:24:11.155Z,99.99
2017-12-27T00:25:11.132Z,99.99
2017-12-27T00:26:10.861Z,99.99
2017-12-27T00:27:11.114Z,99.99
2017-12-27T00:28:11.092Z,99.99
2017-12-27T00:29:11.076Z,99.99
2017-12-27T00:30:11.068Z,99.99
2017-12-27T00:31:10.788Z,99.99
2017-12-27T00:32:11.032Z,99.99
2017-12-27T00:33:11.025Z,99.99
2017-12-27T00:34:11.000Z,99.99
2017-12-27T00:35:10.998Z,99.99
2017-12-27T00:36:10.979Z,99.99
2017-12-27T00:37:10.957Z,99.99
2017-12-27T00:38:10.942Z,99.99
2017-12-27T00:39:10.926Z,99.99
2017-12-27T00:40:10.666Z,99.99
2017-12-27T00:41:10.900Z,99.99
2017-12-27T00:42:10.893Z,99.99
2017-12-27T00:43:10.617Z,99.99
2017-12-27T00:44:10.857Z,99.99
2017-12-27T00:45:10.853Z,99.99
2017-12-27T00:46:10.836Z,99.99
2017-12-27T00:47:10.824Z,99.99
2017-12-27T00:48:10.811Z,99.99
2017-12-27T00:49:10.785Z,99.99
2017-12-27T00:50:10.513Z,99.99
2017-12-27T00:51:10.767Z,99.99
2017-12-27T00:52:10.736Z,99.99
2017-12-27T00:53:10.731Z,99.99
2017-12-27T00:54:10.717Z,99.99
2017-12-27T00:55:10.691Z,99.99
2017-12-27T00:56:10.679Z,99.99
2017-12-27T00:57:10.664Z,99.99
2017-12-27T00:58:10.648Z,99.99
2017-12-27T00:59:10.642Z,99.99
2017-12-27T01:00:10.625Z,99.99
2017-12-27T01:01:10.604Z,99.99
2017-12-27T01:02:10.334Z,99.99
2017-12-27T01:03:10.574Z,99.99
2017-12-27T01:04:10.582Z,99.99
2017-12-27T01:05:10.548Z,99.99
2017-12-27T01:06:10.530Z,99.99
2017-12-27T01:07:10.524Z,99.99
2017-12-27T01:08:10.500Z,99.99
2017-12-27T01:09:10.485Z,99.99
2017-12-27T01:10:10.483Z,99.99
2017-12-27T01:11:10.467Z,99.99
2017-12-27T01:12:10.440Z,99.99
2017-12-27T01:13:10.438Z,99.99
2017-12-27T01:14:10.413Z,99.99
2017-12-27T01:15:10.404Z,99.99
2017-12-27T01:16:10.381Z,99.99
2017-12-27T01:17:10.366Z,99.99
2017-12-27T01:18:10.360Z,99.99
2017-12-27T01:19:10.349Z,99.99
2017-12-27T01:20:10.320Z,99.99
2017-12-27T01:21:10.312Z,99.99
2017-12-27T01:22:10.304Z,99.99
2017-12-27T01:23:10.289Z,99.99
2017-12-27T01:24:10.265Z,99.99
2017-12-27T01:25:10.248Z,99.99
2017-12-27T01:26:10.232Z,99.99
2017-12-27T01:27:10.220Z,99.99
2017-12-27T01:28:10.209Z,99.99
2017-12-27T01:29:09.932Z,99.99
2017-12-27T01:30:10.175Z,99.99
2017-12-27T01:31:10.192Z,99.99
2017-12-27T01:32:10.144Z,99.99
2017-12-27T01:33:10.137Z,99.99
2017-12-27T01:34:10.113Z,99.99
2017-12-27T01:35:10.097Z,99.99
2017-12-27T01:36:09.831Z,99.99
2017-12-27T01:37:10.077Z,99.99
2017-12-27T01:38:10.058Z,99.99
2017-12-27T01:39:09.784Z,99.99
2017-12-27T01:40:10.040Z,99.99
2017-12-27T01:41:09.755Z,99.99
2017-12-27T01:42:09.993Z,99.99
2017-12-27T01:43:09.731Z,99.99
2017-12-27T01:44:09.962Z,99.99
2017-12-27T01:45:09.961Z,99.99
2017-12-27T01:46:09.941Z,99.99
2017-12-27T01:47:09.930Z,99.99
2017-12-27T01:48:09.904Z,99.99
2017-12-27T01:49:09.902Z,99.99
2017-12-27T01:50:09.873Z,99.99
2017-12-27T01:51:09.870Z,99.99
2017-12-27T01:52:09.852Z,99.99
2017-12-27T01:53:09.839Z,99.99
2017-12-27T01:54:09.812Z,99.99
2017-12-27T01:55:09.542Z,99.99
2017-12-27T01:56:09.790Z,99.99
2017-12-27T01:57:09.511Z,99.99
2017-12-27T01:58:09.755Z,99.99
2017-12-27T01:59:09.737Z,99.99
2017-12-27T02:00:09.728Z,99.99
2017-12-27T02:01:09.453Z,99.99
2017-12-27T02:02:09.701Z,99.99
2017-12-27T02:03:09.421Z,99.99
2017-12-27T02:04:09.662Z,99.99
2017-12-27T02:05:09.654Z,99.99
2017-12-27T02:06:09.375Z,99.99
2017-12-27T02:07:09.616Z,99.99
2017-12-27T02:08:09.348Z,99.99
2017-12-27T02:09:09.589Z,99.99
2017-12-27T02:10:09.579Z,99.99
2017-12-27T02:11:09.557Z,99.99
2017-12-27T02:12:09.538Z,99.99
2017-12-27T02:13:09.534Z,99.99
2017-12-27T02:14:09.519Z,99.99
2017-12-27T02:15:09.249Z,99.99
2017-12-27T02:16:09.487Z,99.99
2017-12-27T02:17:09.213Z,99.99
2017-12-27T02:18:09.203Z,99.99
2017-12-27T02:19:09.437Z,99.99
2017-12-27T02:20:09.418Z,99.99
2017-12-27T02:21:09.421Z,99.99
2017-12-27T02:22:09.402Z,99.99
2017-12-27T02:23:09.378Z,99.99
2017-12-27T02:24:09.367Z,99.99
2017-12-27T02:25:09.355Z,99.99
2017-12-27T02:26:09.337Z,99.99
2017-12-27T02:27:09.059Z,99.99
2017-12-27T02:28:09.300Z,99.99
2017-12-27T02:29:09.281Z,99.99
2017-12-27T02:30:09.014Z,99.99
2017-12-27T02:31:09.250Z,99.99
2017-12-27T02:32:09.245Z,99.99
2017-12-27T02:33:09.220Z,99.99
2017-12-27T02:34:09.205Z,99.99
2017-12-27T02:35:09.196Z,99.99
2017-12-27T02:36:09.178Z,99.99
2017-12-27T02:37:09.160Z,99.99
2017-12-27T02:38:09.153Z,99.99
2017-12-27T02:39:09.141Z,99.99
2017-12-27T02:40:09.114Z,99.99
2017-12-27T02:41:09.098Z,99.99
2017-12-27T02:42:09.084Z,99.99
2017-12-27T02:43:09.067Z,99.99
2017-12-27T02:44:09.056Z,99.99
2017-12-27T02:45:08.780Z,99.99
2017-12-27T02:46:09.027Z,99.99
2017-12-27T02:47:08.756Z,99.99
2017-12-27T02:48:08.991Z,99.99
2017-12-27T02:49:08.981Z,99.99
2017-12-27T02:50:08.970Z,99.99
2017-12-27T02:51:08.694Z,99.99
2017-12-27T02:52:08.680Z,99.99
2017-12-27T02:53:08.980Z,99.99
2017-12-27T02:54:08.900Z,99.99
2017-12-27T02:55:08.893Z,99.99
2017-12-27T02:56:08.869Z,99.99
2017-12-27T02:57:08.854Z,99.99
2017-12-27T02:58:08.581Z,99.99
2017-12-27T02:59:08.820Z,99.99
2017-12-27T03:00:08.809Z,99.99
2017-12-27T03:01:08.795Z,99.99
2017-12-27T03:02:08.775Z,99.99
2017-12-27T03:03:08.759Z,99.99
2017-12-27T03:04:08.743Z,99.99
2017-12-27T03:05:08.737Z,99.99
2017-12-27T03:06:08.713Z,99.99
2017-12-27T03:07:08.704Z,99.99
2017-12-27T03:08:08.694Z,99.99
2017-12-27T03:09:08.676Z,99.99
2017-12-27T03:10:08.657Z,99.99
2017-12-27T03:11:08.635Z,99.99
2017-12-27T03:12:08.619Z,99.99
2017-12-27T03:13:08.607Z,99.99
2017-12-27T03:14:08.590Z,99.99
2017-12-27T03:15:08.581Z,99.99
2017-12-27T03:16:08.567Z,99.99
2017-12-27T03:17:08.555Z,99.99
2017-12-27T03:18:08.539Z,99.99
2017-12-27T03:19:08.519Z,99.99
2017-12-27T03:20:08.242Z,99.99
2017-12-27T03:21:08.487Z,99.99
2017-12-27T03:22:08.463Z,99.99
2017-12-27T03:23:08.451Z,99.99
2017-12-27T03:24:08.439Z,99.99
2017-12-27T03:25:08.431Z,99.99
2017-12-27T03:26:08.409Z,99.99
2017-12-27T03:27:08.388Z,99.99
2017-12-27T03:28:08.384Z,99.99
2017-12-27T03:29:08.366Z,99.99
2017-12-27T03:30:08.092Z,99.99
2017-12-27T03:31:08.336Z,99.99
2017-12-27T03:32:08.310Z,99.99
2017-12-27T03:33:08.297Z,99.99
2017-12-27T03:34:08.291Z,99.99
2017-12-27T03:35:08.269Z,99.99
2017-12-27T03:36:08.251Z,99.99
2017-12-27T03:37:08.241Z,99.99
2017-12-27T03:38:08.230Z,99.99
2017-12-27T03:39:07.953Z,99.99
2017-12-27T03:40:08.187Z,99.99
2017-12-27T03:41:08.174Z,99.8
2017-12-27T03:42:08.169Z,99.99
2017-12-27T03:43:07.889Z,99.99
2017-12-27T03:44:08.133Z,99.8
2017-12-27T03:45:08.111Z,99.99
2017-12-27T03:46:08.095Z,99.99
2017-12-27T03:47:08.087Z,99.99
2017-12-27T03:48:08.074Z,99.99
2017-12-27T03:49:08.047Z,99.99
2017-12-27T03:50:07.776Z,99.8
2017-12-27T03:51:08.028Z,99.99
2017-12-27T03:52:08.010Z,99.99
2017-12-27T03:53:07.994Z,99.99
2017-12-27T03:54:07.979Z,99.99
2017-12-27T03:55:07.707Z,99.9
2017-12-27T03:56:07.947Z,99.99
2017-12-27T03:57:07.922Z,99.99
2017-12-27T03:58:07.658Z,99.99
2017-12-27T03:59:07.891Z,99.99
2017-12-27T04:00:07.621Z,99.99
2017-12-27T04:01:07.868Z,99.99
2017-12-27T04:02:07.594Z,99.99
2017-12-27T04:03:07.847Z,99.99
2017-12-27T04:04:07.566Z,99.99
2017-12-27T04:05:07.811Z,99.99
2017-12-27T04:06:07.788Z,99.99
2017-12-27T04:07:07.769Z,99.99
2017-12-27T04:08:07.762Z,99.99
2017-12-27T04:09:07.739Z,99.99
2017-12-27T04:10:07.735Z,99.99
2017-12-27T04:11:07.715Z,99.99
2017-12-27T04:12:07.437Z,99.99
2017-12-27T04:13:07.684Z,99.99
2017-12-27T04:14:07.403Z,99.99
2017-12-27T04:15:07.653Z,99.99
2017-12-27T04:16:07.630Z,99.99
2017-12-27T04:17:07.612Z,99.99
2017-12-27T04:18:07.597Z,99.99
2017-12-27T04:19:07.581Z,99.99
2017-12-27T04:20:07.578Z,99.9
2017-12-27T04:21:07.552Z,99.99
2017-12-27T04:22:07.541Z,99.99
2017-12-27T04:23:07.520Z,99.99
2017-12-27T04:24:07.507Z,99.99
2017-12-27T04:25:07.242Z,99.99
2017-12-27T04:26:07.477Z,99.99
2017-12-27T04:27:07.461Z,99.99
2017-12-27T04:28:07.202Z,99.99
2017-12-27T04:29:07.436Z,99.99
2017-12-27T04:30:07.417Z,99.99
2017-12-27T04:31:07.408Z,99.99
2017-12-27T04:32:07.126Z,99.99
2017-12-27T04:33:07.110Z,99.99
2017-12-27T04:34:07.358Z,99.99
2017-12-27T04:35:07.333Z,99.99
2017-12-27T04:36:07.322Z,99.99
2017-12-27T04:37:07.048Z,99.99
2017-12-27T04:38:07.295Z,99.99
2017-12-27T04:39:07.272Z,99.99
2017-12-27T04:40:07.258Z,99.99
2017-12-27T04:41:07.245Z,99.99
2017-12-27T04:42:07.236Z,99.99
2017-12-27T04:43:07.210Z,99.99
2017-12-27T04:44:07.204Z,99.99
2017-12-27T04:45:07.190Z,99.99
2017-12-27T04:46:06.909Z,99.99
2017-12-27T04:47:07.157Z,99.85
2017-12-27T04:48:06.884Z,99.99
2017-12-27T04:49:07.125Z,99.99
2017-12-27T04:50:06.847Z,99.99
2017-12-27T04:51:07.089Z,99.99
2017-12-27T04:52:06.823Z,99.71
2017-12-27T04:53:07.069Z,99.62
2017-12-27T04:54:06.785Z,99.8
2017-12-27T04:55:07.024Z,99.8
2017-12-27T04:56:07.014Z,99.8
2017-12-27T04:57:06.739Z,99.71
2017-12-27T04:58:06.978Z,99.8
2017-12-27T04:59:07.018Z,99.52
2017-12-27T05:00:06.948Z,99.71
2017-12-27T05:01:06.932Z,99.8
2017-12-27T05:02:06.918Z,99.71
2017-12-27T05:03:06.905Z,99.62
2017-12-27T05:04:06.897Z,99.99
2017-12-27T05:05:06.882Z,99.99
2017-12-27T05:06:06.864Z,99.99
2017-12-27T05:07:06.846Z,99.99
2017-12-27T05:08:06.837Z,99.99
2017-12-27T05:09:06.809Z,99.99
2017-12-27T05:10:06.793Z,99.99
2017-12-27T05:11:06.791Z,99.99
2017-12-27T05:12:06.762Z,99.99
2017-12-27T05:13:06.747Z,99.99
2017-12-27T05:14:06.740Z,99.99
2017-12-27T05:15:06.463Z,99.99
2017-12-27T05:16:06.446Z,99.99
2017-12-27T05:17:06.698Z,99.99
2017-12-27T05:18:06.688Z,99.99
2017-12-27T05:19:06.666Z,99.62
2017-12-27T05:20:06.642Z,99.62
2017-12-27T05:21:06.627Z,99.62
2017-12-27T05:22:06.352Z,99.62
2017-12-27T05:23:06.617Z,99.8
2017-12-27T05:24:06.589Z,99.71
2017-12-27T05:25:06.563Z,99.9
2017-12-27T05:26:06.558Z,99.62
2017-12-27T05:27:06.538Z,99.9
2017-12-27T05:28:06.526Z,99.99
2017-12-27T05:29:06.502Z,99.99
2017-12-27T05:30:06.237Z,99.99
2017-12-27T05:31:06.468Z,99.99
2017-12-27T05:32:06.463Z,99.62
2017-12-27T05:33:06.445Z,99.99
2017-12-27T05:34:06.425Z,99.62
2017-12-27T05:35:06.421Z,99.71
2017-12-27T05:36:06.400Z,99.8
2017-12-27T05:37:06.383Z,99.8
2017-12-27T05:38:06.369Z,99.8
2017-12-27T05:39:06.345Z,99.99
2017-12-27T05:40:06.338Z,99.52
2017-12-27T05:41:06.318Z,99.9
2017-12-27T05:42:06.045Z,99.62
2017-12-27T05:43:06.287Z,99.9
2017-12-27T05:44:06.271Z,99.8
2017-12-27T05:45:06.002Z,99.99
2017-12-27T05:46:06.244Z,99.9
2017-12-27T05:47:06.238Z,99.99
2017-12-27T05:48:06.204Z,99.52
2017-12-27T05:49:06.199Z,99.8
2017-12-27T05:50:06.180Z,99.9
2017-12-27T05:51:05.902Z,99.43
2017-12-27T05:52:05.894Z,99.33
2017-12-27T05:53:06.136Z,99.71
2017-12-27T05:54:06.124Z,99.62
2017-12-27T05:55:06.105Z,99.62
2017-12-27T05:56:06.083Z,99.71
2017-12-27T05:57:06.065Z,99.71
2017-12-27T05:58:05.794Z,99.62
2017-12-27T05:59:06.034Z,99.62
2017-12-27T06:00:06.022Z,99.43
2017-12-27T06:01:06.002Z,99.33
2017-12-27T06:02:05.986Z,99.62
2017-12-27T06:03:05.974Z,99.71
2017-12-27T06:04:05.956Z,99.33
2017-12-27T06:05:05.686Z,99.8
2017-12-27T06:06:05.924Z,99.43
2017-12-27T06:07:05.918Z,99.52
2017-12-27T06:08:05.938Z,99.52
2017-12-27T06:09:05.891Z,99.62
2017-12-27T06:10:05.612Z,99.71
2017-12-27T06:11:05.848Z,99.71
2017-12-27T06:12:05.832Z,99.71
2017-12-27T06:13:05.825Z,99.62
2017-12-27T06:14:05.802Z,99.8
2017-12-27T06:15:05.792Z,99.99
2017-12-27T06:16:05.772Z,99.99
2017-12-27T06:17:05.763Z,99.99
2017-12-27T06:18:05.738Z,99.71
2017-12-27T06:19:05.723Z,99.99
2017-12-27T06:20:05.461Z,99.99
2017-12-27T06:21:05.691Z,99.62
2017-12-27T06:22:05.676Z,99.62
2017-12-27T06:23:05.669Z,99.52
2017-12-27T06:24:05.396Z,99.62
2017-12-27T06:25:05.631Z,99.62
2017-12-27T06:26:05.614Z,99.62
2017-12-27T06:27:05.351Z,99.62
2017-12-27T06:28:05.585Z,99.9
2017-12-27T06:29:05.567Z,99.8
2017-12-27T06:30:05.297Z,99.9
2017-12-27T06:31:05.539Z,99.9
2017-12-27T06:32:05.523Z,99.9
2017-12-27T06:33:05.252Z,99.62
2017-12-27T06:34:05.491Z,99.99
2017-12-27T06:35:05.224Z,99.52
2017-12-27T06:36:05.464Z,99.99
2017-12-27T06:37:05.187Z,99.57
2017-12-27T06:38:05.435Z,99.62
2017-12-27T06:39:05.421Z,99.52
2017-12-27T06:40:05.398Z,99.9
2017-12-27T06:41:05.383Z,99.99
2017-12-27T06:42:05.370Z,99.8
2017-12-27T06:43:05.349Z,99.71
2017-12-27T06:44:05.336Z,99.9
2017-12-27T06:45:05.332Z,99.62
2017-12-27T06:46:05.370Z,99.62
2017-12-27T06:47:05.298Z,99.9
2017-12-27T06:48:05.290Z,99.9
2017-12-27T06:49:05.262Z,99.71
2017-12-27T06:50:05.238Z,99.8
2017-12-27T06:51:05.226Z,99.71
2017-12-27T06:52:05.214Z,99.71
2017-12-27T06:53:05.193Z,99.62
2017-12-27T06:54:05.191Z,99.62
2017-12-27T06:55:04.909Z,99.62
2017-12-27T06:56:05.146Z,99.71
2017-12-27T06:57:05.130Z,99.99
2017-12-27T06:58:05.116Z,99.71
2017-12-27T06:59:05.098Z,99.99
2017-12-27T07:00:05.083Z,99.52
2017-12-27T07:01:05.070Z,99.52
2017-12-27T07:02:05.052Z,99.8
2017-12-27T07:03:05.037Z,99.9
2017-12-27T07:04:05.034Z,99.99
2017-12-27T07:05:04.752Z,99.95
2017-12-27T07:06:04.991Z,99.99
2017-12-27T07:07:04.724Z,99.71
2017-12-27T07:08:04.969Z,99.71
2017-12-27T07:09:04.950Z,99.71
2017-12-27T07:10:04.931Z,99.62
2017-12-27T07:11:04.923Z,99.71
2017-12-27T07:12:04.897Z,99.71
2017-12-27T07:13:04.629Z,99.62
2017-12-27T07:14:04.864Z,99.8
2017-12-27T07:15:04.854Z,99.71
2017-12-27T07:16:04.850Z,99.9
2017-12-27T07:17:04.832Z,99.52
2017-12-27T07:18:04.815Z,99.8
2017-12-27T07:19:04.798Z,99.99
2017-12-27T07:20:04.789Z,99.66
2017-12-27T07:21:04.766Z,99.95
2017-12-27T07:22:04.743Z,99.66
2017-12-27T07:23:04.475Z,99.85
2017-12-27T07:24:04.727Z,99.9
2017-12-27T07:25:04.699Z,99.99
2017-12-27T07:26:04.688Z,99.05
2017-12-27T07:27:04.662Z,99.8
2017-12-27T07:28:04.391Z,99.9
2017-12-27T07:29:04.649Z,99.29
2017-12-27T07:30:04.617Z,99.29
2017-12-27T07:31:04.600Z,99.1
2017-12-27T07:32:04.597Z,99.01
2017-12-27T07:33:04.619Z,99.1
2017-12-27T07:34:04.559Z,99.1
2017-12-27T07:35:04.541Z,99.19
2017-12-27T07:36:04.535Z,99.48
2017-12-27T07:37:04.510Z,99.29
2017-12-27T07:38:04.500Z,99.57
2017-12-27T07:39:04.482Z,99.57
2017-12-27T07:40:04.471Z,99.57
2017-12-27T07:41:04.456Z,99.38
2017-12-27T07:42:04.430Z,99.38
2017-12-27T07:43:04.428Z,99.19
2017-12-27T07:44:04.151Z,99.01
2017-12-27T07:45:04.391Z,99.19
2017-12-27T07:46:04.379Z,99.01
2017-12-27T07:47:04.357Z,99.01
2017-12-27T07:48:04.353Z,99.1
2017-12-27T07:49:04.335Z,99.1
2017-12-27T07:50:04.319Z,98.91
2017-12-27T07:51:04.293Z,98.91
2017-12-27T07:52:04.283Z,99.1
2017-12-27T07:53:04.261Z,99.19
2017-12-27T07:54:04.257Z,99.1
2017-12-27T07:55:04.237Z,99.1
2017-12-27T07:56:04.234Z,99.29
2017-12-27T07:57:04.203Z,99.29
2017-12-27T07:58:04.187Z,98.63
2017-12-27T07:59:04.174Z,98.53
2017-12-27T08:00:04.161Z,98.82
2017-12-27T08:01:04.141Z,98.72
2017-12-27T08:02:04.128Z,98.72
2017-12-27T08:03:04.113Z,98.63
2017-12-27T08:04:04.097Z,98.91
2017-12-27T08:05:04.088Z,98.82
2017-12-27T08:06:04.074Z,98.82
2017-12-27T08:07:04.054Z,98.63
2017-12-27T08:08:04.037Z,98.72
2017-12-27T08:09:04.023Z,98.63
2017-12-27T08:10:04.018Z,98.82
2017-12-27T08:11:03.989Z,98.63
2017-12-27T08:12:03.988Z,98.53
2017-12-27T08:13:03.960Z,98.15
2017-12-27T08:14:03.949Z,98.53
2017-12-27T08:15:03.964Z,98.82
2017-12-27T08:16:03.913Z,98.82
2017-12-27T08:17:03.646Z,98.82
2017-12-27T08:18:03.884Z,98.53
2017-12-27T08:19:03.878Z,98.3
2017-12-27T08:20:03.601Z,98.39
2017-12-27T08:21:03.842Z,98.39
2017-12-27T08:22:03.576Z,98.3
2017-12-27T08:23:03.822Z,98.11
2017-12-27T08:24:03.798Z,98.11
2017-12-27T08:25:03.524Z,98.11
2017-12-27T08:26:03.510Z,98.11
2017-12-27T08:27:03.767Z,98.11
2017-12-27T08:28:03.745Z,97.92
2017-12-27T08:29:03.721Z,98.2
2017-12-27T08:30:03.707Z,98.3
2017-12-27T08:31:03.440Z,98.3
2017-12-27T08:32:03.676Z,98.58
2017-12-27T08:33:03.671Z,98.01
2017-12-27T08:34:03.647Z,98.68
2017-12-27T08:35:03.632Z,98.77
2017-12-27T08:36:03.620Z,98.2
2017-12-27T08:37:03.612Z,98.3
2017-12-27T08:38:03.589Z,98.01
2017-12-27T08:39:03.578Z,98.2
2017-12-27T08:40:03.576Z,97.63
2017-12-27T08:41:03.295Z,98.01
2017-12-27T08:42:03.540Z,97.73
2017-12-27T08:43:03.522Z,98.01
2017-12-27T08:44:03.505Z,98.01
2017-12-27T08:45:03.494Z,97.92
2017-12-27T08:46:03.216Z,97.68
2017-12-27T08:47:03.469Z,97.87
2017-12-27T08:48:03.455Z,97.68
2017-12-27T08:49:03.432Z,97.68
2017-12-27T08:50:03.416Z,97.68
2017-12-27T08:51:03.400Z,97.3
2017-12-27T08:52:03.389Z,97.68
2017-12-27T08:53:03.379Z,97.49
2017-12-27T08:54:03.369Z,97.3
2017-12-27T08:55:03.353Z,97.78
2017-12-27T08:56:03.335Z,97.02
2017-12-27T08:57:03.325Z,97.02
2017-12-27T08:58:03.301Z,97.21
2017-12-27T08:59:03.289Z,97.21
2017-12-27T09:00:03.290Z,97.4
2017-12-27T09:01:03.259Z,97.21
2017-12-27T09:02:03.254Z,97.21
2017-12-27T09:03:03.235Z,97.4
2017-12-27T09:04:02.970Z,97.49
2017-12-27T09:05:03.210Z,97.07
2017-12-27T09:06:03.194Z,97.45
2017-12-27T09:07:02.921Z,97.07
2017-12-27T09:08:03.161Z,97.07
2017-12-27T09:09:03.158Z,97.16
2017-12-27T09:10:02.883Z,96.97
2017-12-27T09:11:03.126Z,96.59
2017-12-27T09:12:03.110Z,96.5
2017-12-27T09:13:03.100Z,96.69
2017-12-27T09:14:03.089Z,96.5
2017-12-27T09:15:03.073Z,96.5
2017-12-27T09:16:03.053Z,95.93
2017-12-27T09:17:03.042Z,95.93
2017-12-27T09:18:03.024Z,96.03
2017-12-27T09:19:03.027Z,96.59
2017-12-27T09:20:02.996Z,96.12
2017-12-27T09:21:02.991Z,96.22
2017-12-27T09:22:02.968Z,95.45
2017-12-27T09:23:02.969Z,95.45
2017-12-27T09:24:02.945Z,95.65
2017-12-27T09:25:02.931Z,95.41
2017-12-27T09:26:02.921Z,95.6
2017-12-27T09:27:02.902Z,95.5
2017-12-27T09:28:02.899Z,95.69
2017-12-27T09:29:02.885Z,95.5
2017-12-27T09:30:02.607Z,95.45
2017-12-27T09:31:02.861Z,95.5
2017-12-27T09:32:02.590Z,95.6
2017-12-27T09:33:02.823Z,95.5
2017-12-27T09:34:02.561Z,95.6
2017-12-27T09:35:02.544Z,94.93
2017-12-27T09:36:02.785Z,95.69
2017-12-27T09:37:02.779Z,95.6
2017-12-27T09:38:02.757Z,94.7
2017-12-27T09:39:02.497Z,94.93
2017-12-27T09:40:02.734Z,94.7
2017-12-27T09:41:02.726Z,95.6
2017-12-27T09:42:02.704Z,95.03
2017-12-27T09:43:02.698Z,95.65
2017-12-27T09:44:02.688Z,95.03
2017-12-27T09:45:02.673Z,95.69
2017-12-27T09:46:02.651Z,95.31
2017-12-27T09:47:02.640Z,95.6
2017-12-27T09:48:02.625Z,94.93
2017-12-27T09:49:02.622Z,95.41
2017-12-27T09:50:02.605Z,94.65
2017-12-27T09:51:02.588Z,94.84
2017-12-27T09:52:02.572Z,94.84
2017-12-27T09:53:02.559Z,94.74
2017-12-27T09:54:02.545Z,94.74
2017-12-27T09:55:02.544Z,95.03
2017-12-27T09:56:02.529Z,94.46
2017-12-27T09:57:02.519Z,94.46
2017-12-27T09:58:02.513Z,94.46
2017-12-27T09:59:02.225Z,93.99
2017-12-27T10:00:02.471Z,94.27
2017-12-27T10:01:02.202Z,94.27
2017-12-27T10:02:02.449Z,94.18
2017-12-27T10:03:02.435Z,93.8
2017-12-27T10:04:02.162Z,94.18
2017-12-27T10:05:02.422Z,93.61
2017-12-27T10:06:02.140Z,93.7
2017-12-27T10:07:02.395Z,94.03
2017-12-27T10:08:02.112Z,93.84
2017-12-27T10:09:02.361Z,93.56
2017-12-27T10:10:02.363Z,93.46
2017-12-27T10:11:02.327Z,93.56
2017-12-27T10:12:02.318Z,93.56
2017-12-27T10:13:02.306Z,93.75
2017-12-27T10:14:02.291Z,93.18
2017-12-27T10:15:02.276Z,93.18
2017-12-27T10:16:02.009Z,93.46
2017-12-27T10:17:01.998Z,93.56
2017-12-27T10:18:01.982Z,93.56
2017-12-27T10:19:02.231Z,93.56
2017-12-27T10:20:02.222Z,93.18
2017-12-27T10:21:02.205Z,93.37
2017-12-27T10:22:01.940Z,93.27
2017-12-27T10:23:02.178Z,92.99
2017-12-27T10:24:02.173Z,92.9
2017-12-27T10:25:02.162Z,92.71
2017-12-27T10:26:02.141Z,92.9
2017-12-27T10:27:02.126Z,92.99
2017-12-27T10:28:02.125Z,92.99
2017-12-27T10:29:02.102Z,93.08
2017-12-27T10:30:02.095Z,92.71
2017-12-27T10:31:02.085Z,92.71
2017-12-27T10:32:02.071Z,92.8
2017-12-27T10:33:02.056Z,92.71
2017-12-27T10:34:01.789Z,92.61
2017-12-27T10:35:02.043Z,92.61
2017-12-27T10:36:02.028Z,92.71
2017-12-27T10:37:02.002Z,92.9
2017-12-27T10:38:01.995Z,92.75
2017-12-27T10:39:01.978Z,92.85
2017-12-27T10:40:01.965Z,91.99
2017-12-27T10:41:01.966Z,92.37
2017-12-27T10:42:01.956Z,92.47
2017-12-27T10:43:01.930Z,92.28
2017-12-27T10:44:01.926Z,92.28
2017-12-27T10:45:01.908Z,91.89
2017-12-27T10:46:01.902Z,91.8
2017-12-27T10:47:01.882Z,91.42
2017-12-27T10:48:01.877Z,91.42
2017-12-27T10:49:01.864Z,91.19
2017-12-27T10:50:01.905Z,91.33
2017-12-27T10:51:01.844Z,91.09
2017-12-27T10:52:01.831Z,91.19
2017-12-27T10:53:01.562Z,91.19
2017-12-27T10:54:01.798Z,91.28
2017-12-27T10:55:01.789Z,91.28
2017-12-27T10:56:01.776Z,91.09
2017-12-27T10:57:01.765Z,90.99
2017-12-27T10:58:01.759Z,91.38
2017-12-27T10:59:01.739Z,90.61
2017-12-27T11:00:01.726Z,91.09
2017-12-27T11:01:01.719Z,90.42
2017-12-27T11:02:01.711Z,90.52
2017-12-27T11:03:01.693Z,90.61
2017-12-27T11:04:01.687Z,89.8
2017-12-27T11:05:01.671Z,90
2017-12-27T11:06:01.663Z,90.28
2017-12-27T11:07:01.394Z,89.71
2017-12-27T11:08:01.636Z,89.14
2017-12-27T11:09:01.627Z,89.14
2017-12-27T11:10:01.613Z,88.76
2017-12-27T11:11:01.600Z,88.38
2017-12-27T11:12:01.341Z,88.28
2017-12-27T11:13:01.330Z,88.47
2017-12-27T11:14:01.567Z,89.23
2017-12-27T11:15:01.556Z,89.23
2017-12-27T11:16:01.554Z,88.47
2017-12-27T11:17:01.543Z,88.47
2017-12-27T11:18:01.522Z,88.67
2017-12-27T11:19:01.263Z,88.38
2017-12-27T11:20:01.502Z,88.47
2017-12-27T11:21:01.492Z,88.57
2017-12-27T11:22:01.490Z,88.38
2017-12-27T11:23:01.479Z,88.38
2017-12-27T11:24:01.467Z,88.38
2017-12-27T11:25:01.460Z,88.57
2017-12-27T11:26:01.445Z,88.28
2017-12-27T11:27:01.177Z,88.38
2017-12-27T11:28:01.416Z,88.38
2017-12-27T11:29:01.409Z,88.38
2017-12-27T11:30:01.395Z,88.47
2017-12-27T11:31:01.131Z,88.28
2017-12-27T11:32:01.371Z,88.28
2017-12-27T11:33:01.109Z,88.28
2017-12-27T11:34:01.350Z,88.67
2017-12-27T11:35:01.345Z,89.14
2017-12-27T11:36:01.329Z,88.76
2017-12-27T11:37:01.317Z,88.85
2017-12-27T11:38:01.307Z,88.95
2017-12-27T11:39:01.294Z,88.38
2017-12-27T11:40:01.285Z,88.28
2017-12-27T11:41:01.272Z,88.67
2017-12-27T11:42:01.264Z,88.28
2017-12-27T11:43:01.252Z,88.28
2017-12-27T11:44:00.989Z,88
2017-12-27T11:45:01.230Z,88.57
2017-12-27T11:46:01.217Z,88.47
2017-12-27T11:47:01.207Z,88.28
2017-12-27T11:48:01.194Z,88.47
2017-12-27T11:49:01.183Z,88.67
2017-12-27T11:50:01.175Z,89.14
2017-12-27T11:51:01.168Z,89.14
2017-12-27T11:52:01.154Z,88.57
2017-12-27T11:53:01.148Z,88.28
2017-12-27T11:54:01.128Z,88.95
2017-12-27T11:55:01.117Z,89.04
2017-12-27T11:56:01.109Z,89.14
2017-12-27T11:57:01.096Z,88.47
2017-12-27T11:58:01.098Z,88.47
2017-12-27T11:59:00.817Z,88.38
2017-12-27T12:00:01.077Z,88.19
2017-12-27T12:01:01.049Z,88.19
2017-12-27T12:02:01.039Z,88.28
2017-12-27T12:03:01.032Z,87.52
2017-12-27T12:04:01.020Z,88.19
2017-12-27T12:05:01.008Z,88
2017-12-27T12:06:00.996Z,87.71
2017-12-27T12:07:00.984Z,87.71
2017-12-27T12:08:00.984Z,88.09
2017-12-27T12:09:00.966Z,87.34
2017-12-27T12:10:00.952Z,87.81
2017-12-27T12:11:00.940Z,88.09
2017-12-27T12:12:00.996Z,87.52
2017-12-27T12:13:00.931Z,87.14
2017-12-27T12:14:00.913Z,87.05
2017-12-27T12:15:00.910Z,87.14
2017-12-27T12:16:00.886Z,86.86
2017-12-27T12:17:00.884Z,86.67
2017-12-27T12:18:00.611Z,87.05
2017-12-27T12:19:00.851Z,87.24
2017-12-27T12:20:00.848Z,87.24
2017-12-27T12:21:00.827Z,87.14
2017-12-27T12:22:00.563Z,86.86
2017-12-27T12:23:00.816Z,87.43
2017-12-27T12:24:00.813Z,86.95
2017-12-27T12:25:00.790Z,86.95
2017-12-27T12:26:00.772Z,87.05
2017-12-27T12:27:00.762Z,87.05
2017-12-27T12:28:00.763Z,87.52
2017-12-27T12:29:00.744Z,87.52
2017-12-27T12:30:00.475Z,87.43
2017-12-27T12:31:00.471Z,87.09
2017-12-27T12:32:00.710Z,86.95
2017-12-27T12:33:00.698Z,87.09
2017-12-27T12:34:00.685Z,86.76
2017-12-27T12:35:00.673Z,87.05
2017-12-27T12:36:00.669Z,86.86
2017-12-27T12:37:00.651Z,86.86
2017-12-27T12:38:00.706Z,86.86
2017-12-27T12:39:00.642Z,86.86
2017-12-27T12:40:00.618Z,87.71
2017-12-27T12:41:00.618Z,86.95
2017-12-27T12:42:00.597Z,86.86
2017-12-27T12:43:00.597Z,86.86
2017-12-27T12:44:00.574Z,87.24
2017-12-27T12:45:00.574Z,87.34
2017-12-27T12:46:00.552Z,87.24
2017-12-27T12:47:00.544Z,87.05
2017-12-27T12:48:00.533Z,87.43
2017-12-27T12:49:00.522Z,87.52
2017-12-27T12:50:00.518Z,87.62
2017-12-27T12:51:00.506Z,87.62
2017-12-27T12:52:00.492Z,87.24
2017-12-27T12:53:00.483Z,87.52
2017-12-27T12:54:00.465Z,87.52
2017-12-27T12:55:00.452Z,87.9